createdAt,value
2018-06-22T00:00:04.067Z,0.00
2018-06-22T00:01:04.059Z,0.00
2018-06-22T00:02:04.061Z,0.00
2018-06-22T00:03:04.052Z,0.00
2018-06-22T00:04:04.048Z,0.00
2018-06-22T00:05:04.039Z,0.00
2018-06-22T00:06:04.040Z,0.00
2018-06-22T00:07:04.036Z,0.00
2018-06-22T00:08:04.179Z,0.00
2018-06-22T00:09:04.037Z,0.00
2018-06-22T00:10:04.022Z,0.00
2018-06-22T00:11:04.006Z,0.00
2018-06-22T00:12:04.014Z,0.00
2018-06-22T00:13:04.196Z,0.00
2018-06-22T00:14:04.003Z,0.00
2018-06-22T00:15:03.995Z,0.00
2018-06-22T00:16:03.992Z,0.00
2018-06-22T00:17:03.992Z,0.00
2018-06-22T00:18:03.977Z,0.00
2018-06-22T00:19:03.979Z,0.00
2018-06-22T00:20:04.043Z,0.00
2018-06-22T00:21:04.048Z,0.00
2018-06-22T00:22:03.968Z,0.00
2018-06-22T00:23:03.961Z,0.00
2018-06-22T00:24:03.961Z,0.00
2018-06-22T00:25:03.951Z,0.00
2018-06-22T00:26:03.948Z,0.00
2018-06-22T00:27:03.939Z,0.00
2018-06-22T00:28:04.039Z,0.00
2018-06-22T00:29:04.102Z,0.00
2018-06-22T00:30:03.927Z,0.00
2018-06-22T00:31:03.956Z,0.00
2018-06-22T00:32:03.918Z,0.00
2018-06-22T00:33:03.918Z,0.00
2018-06-22T00:34:03.911Z,0.00
2018-06-22T00:35:03.902Z,0.00
2018-06-22T00:36:03.928Z,0.00
2018-06-22T00:37:03.892Z,0.00
2018-06-22T00:38:03.962Z,0.00
2018-06-22T00:39:03.886Z,0.00
2018-06-22T00:40:03.892Z,0.00
2018-06-22T00:41:03.977Z,0.00
2018-06-22T00:42:03.872Z,0.00
2018-06-22T00:43:03.859Z,0.00
2018-06-22T00:44:03.860Z,0.00
2018-06-22T00:45:03.852Z,0.00
2018-06-22T00:46:03.839Z,0.00
2018-06-22T00:47:03.843Z,0.00
2018-06-22T00:48:03.834Z,0.00
2018-06-22T00:49:03.838Z,0.00
2018-06-22T00:50:03.837Z,0.00
2018-06-22T00:51:03.820Z,0.00
2018-06-22T00:52:03.821Z,0.00
2018-06-22T00:53:03.812Z,0.00
2018-06-22T00:54:03.851Z,0.00
2018-06-22T00:55:03.795Z,0.00
2018-06-22T00:56:03.798Z,0.00
2018-06-22T00:57:03.793Z,0.00
2018-06-22T00:58:03.904Z,0.00
2018-06-22T00:59:03.779Z,0.00
2018-06-22T01:00:03.777Z,0.00
2018-06-22T01:01:04.729Z,0.00
2018-06-22T01:02:03.840Z,0.00
2018-06-22T01:03:03.899Z,0.00
2018-06-22T01:04:03.747Z,0.00
2018-06-22T01:05:03.748Z,0.00
2018-06-22T01:06:03.745Z,0.00
2018-06-22T01:07:03.751Z,0.00
2018-06-22T01:08:03.732Z,0.00
2018-06-22T01:09:03.725Z,0.00
2018-06-22T01:10:03.718Z,0.00
2018-06-22T01:11:03.713Z,0.00
2018-06-22T01:12:03.699Z,0.00
2018-06-22T01:13:03.798Z,0.00
2018-06-22T01:14:03.702Z,0.00
2018-06-22T01:15:03.720Z,0.00
2018-06-22T01:16:03.687Z,0.00
2018-06-22T01:17:03.680Z,0.00
2018-06-22T01:18:03.675Z,0.00
2018-06-22T01:19:03.670Z,0.00
2018-06-22T01:20:03.657Z,0.00
2018-06-22T01:21:03.652Z,0.00
2018-06-22T01:22:03.650Z,0.00
2018-06-22T01:23:03.680Z,0.00
2018-06-22T01:24:03.676Z,0.00
2018-06-22T01:25:03.631Z,0.00
2018-06-22T01:26:03.630Z,0.00
2018-06-22T01:27:03.627Z,0.00
2018-06-22T01:28:03.672Z,0.00
2018-06-22T01:29:03.602Z,0.00
2018-06-22T01:30:03.797Z,0.00
2018-06-22T02:03:03.218Z,0.00
2018-06-22T02:04:03.181Z,0.00
2018-06-22T02:05:56.445Z,0.00
2018-06-22T02:06:56.383Z,0.00
2018-06-22T02:08:49.349Z,0.00
2018-06-22T02:09:49.321Z,0.00
2018-06-22T02:11:42.212Z,0.00
2018-06-22T02:12:42.194Z,0.00
2018-06-22T02:14:35.374Z,0.00
2018-06-22T02:15:35.346Z,0.00
2018-06-22T02:16:35.340Z,0.00
2018-06-22T02:17:35.333Z,0.00
2018-06-22T02:18:35.325Z,0.00
2018-06-22T02:19:35.323Z,0.00
2018-06-22T02:20:35.309Z,0.00
2018-06-22T02:21:35.302Z,0.00
2018-06-22T02:22:35.296Z,0.00
2018-06-22T02:23:35.281Z,0.00
2018-06-22T02:24:35.293Z,0.00
2018-06-22T02:25:35.272Z,0.00
2018-06-22T02:26:35.279Z,0.00
2018-06-22T02:27:35.263Z,0.00
2018-06-22T02:28:35.256Z,0.00
2018-06-22T02:29:35.261Z,0.00
2018-06-22T02:30:35.243Z,0.00
2018-06-22T02:31:35.239Z,0.00
2018-06-22T02:32:35.230Z,0.00
2018-06-22T02:33:35.223Z,0.00
2018-06-22T02:34:35.233Z,0.00
2018-06-22T02:35:35.210Z,0.00
2018-06-22T02:36:35.209Z,0.00
2018-06-22T02:37:35.212Z,0.00
2018-06-22T02:38:35.190Z,0.00
2018-06-22T02:39:35.189Z,4.00
2018-06-22T02:40:35.177Z,4.00
2018-06-22T02:41:35.171Z,0.00
2018-06-22T02:42:35.164Z,0.00
2018-06-22T02:43:35.159Z,4.00
2018-06-22T02:44:35.153Z,4.00
2018-06-22T02:45:35.158Z,4.00
2018-06-22T02:46:35.137Z,4.00
2018-06-22T02:47:35.133Z,4.00
2018-06-22T02:48:35.128Z,8.00
2018-06-22T02:49:35.117Z,8.00
2018-06-22T02:50:35.115Z,8.00
2018-06-22T02:51:35.096Z,8.00
2018-06-22T02:52:35.122Z,12.00
2018-06-22T02:53:35.095Z,8.00
2018-06-22T02:54:35.085Z,12.00
2018-06-22T02:55:35.081Z,12.00
2018-06-22T02:56:35.072Z,16.00
2018-06-22T02:57:35.066Z,20.00
2018-06-22T02:58:35.061Z,20.00
2018-06-22T02:59:35.063Z,28.00
2018-06-22T03:00:35.037Z,32.00
2018-06-22T03:01:35.043Z,36.00
2018-06-22T03:02:35.038Z,40.00
2018-06-22T03:03:35.039Z,44.00
2018-06-22T03:04:35.016Z,48.00
2018-06-22T03:05:35.016Z,60.00
2018-06-22T03:06:35.012Z,64.00
2018-06-22T03:07:35.021Z,76.00
2018-06-22T03:08:35.002Z,80.00
2018-06-22T03:09:34.980Z,92.00
2018-06-22T03:10:34.980Z,104.00
2018-06-22T03:11:34.979Z,116.00
2018-06-22T03:12:34.961Z,128.00
2018-06-22T03:13:35.062Z,144.00
2018-06-22T03:14:34.969Z,160.00
2018-06-22T03:15:34.947Z,176.00
2018-06-22T03:16:34.945Z,192.00
2018-06-22T03:17:34.934Z,212.00
2018-06-22T03:18:34.928Z,228.00
2018-06-22T03:19:34.919Z,248.00
2018-06-22T03:20:34.911Z,276.00
2018-06-22T03:21:34.904Z,296.00
2018-06-22T03:22:34.900Z,324.00
2018-06-22T03:23:34.891Z,348.00
2018-06-22T03:24:34.886Z,380.00
2018-06-22T03:25:34.876Z,408.00
2018-06-22T03:26:34.873Z,444.00
2018-06-22T03:27:34.868Z,476.00
2018-06-22T03:28:34.856Z,512.00
2018-06-22T03:29:34.865Z,548.00
2018-06-22T03:30:34.851Z,588.00
2018-06-22T03:31:34.969Z,624.00
2018-06-22T03:32:34.977Z,672.00
2018-06-22T03:33:34.833Z,716.00
2018-06-22T03:34:34.818Z,764.00
2018-06-22T03:35:34.805Z,816.00
2018-06-22T03:36:34.805Z,868.00
2018-06-22T03:37:34.797Z,924.00
2018-06-22T03:38:34.793Z,980.00
2018-06-22T03:39:34.891Z,1040.00
2018-06-22T03:40:34.782Z,1096.00
2018-06-22T03:41:34.777Z,1156.00
2018-06-22T03:42:34.768Z,1220.00
2018-06-22T03:43:34.751Z,1284.00
2018-06-22T03:44:34.784Z,1356.00
2018-06-22T03:45:34.756Z,1420.00
2018-06-22T03:46:34.740Z,1488.00
2018-06-22T03:47:34.731Z,1552.00
2018-06-22T03:48:34.727Z,1620.00
2018-06-22T03:49:34.716Z,1692.00
2018-06-22T03:50:34.724Z,1756.00
2018-06-22T03:51:34.719Z,1824.00
2018-06-22T03:52:34.698Z,1900.00
2018-06-22T03:53:34.692Z,1976.00
2018-06-22T03:54:34.683Z,2052.00
2018-06-22T03:55:34.677Z,2120.00
2018-06-22T03:56:34.741Z,2188.00
2018-06-22T03:57:34.661Z,2256.00
2018-06-22T03:58:34.660Z,2320.00
2018-06-22T03:59:34.677Z,2388.00
2018-06-22T04:00:34.654Z,2456.00
2018-06-22T04:01:34.691Z,2516.00
2018-06-22T04:02:34.632Z,2576.00
2018-06-22T04:03:34.618Z,2644.00
2018-06-22T04:04:34.637Z,2708.00
2018-06-22T04:05:34.783Z,2728.00
2018-06-22T04:06:34.609Z,2692.00
2018-06-22T04:07:34.597Z,2744.00
2018-06-22T04:08:34.604Z,2840.00
2018-06-22T04:09:34.605Z,3088.00
2018-06-22T04:10:34.581Z,3172.00
2018-06-22T04:11:34.589Z,3248.00
2018-06-22T04:12:34.574Z,3316.00
2018-06-22T04:13:34.565Z,3380.00
2018-06-22T04:14:34.558Z,3456.00
2018-06-22T04:15:34.551Z,3540.00
2018-06-22T04:16:34.562Z,3660.00
2018-06-22T04:17:34.656Z,3776.00
2018-06-22T04:18:34.531Z,3868.00
2018-06-22T04:19:34.528Z,3956.00
2018-06-22T04:20:34.526Z,4036.00
2018-06-22T04:21:34.516Z,4108.00
2018-06-22T04:22:34.513Z,4152.00
2018-06-22T04:23:34.494Z,4196.00
2018-06-22T04:24:34.498Z,4264.00
2018-06-22T04:25:34.491Z,4324.00
2018-06-22T04:26:34.490Z,4392.00
2018-06-22T04:27:34.483Z,4444.00
2018-06-22T04:28:34.472Z,4496.00
2018-06-22T04:29:34.469Z,4548.00
2018-06-22T04:30:34.538Z,4612.00
2018-06-22T04:31:34.464Z,4704.00
2018-06-22T04:32:34.454Z,4816.00
2018-06-22T04:33:34.448Z,4988.00
2018-06-22T04:34:34.441Z,5152.00
2018-06-22T04:35:34.431Z,5368.00
2018-06-22T04:36:34.433Z,5648.00
2018-06-22T04:37:34.435Z,5936.00
2018-06-22T04:38:34.481Z,5920.00
2018-06-22T04:39:34.419Z,5636.00
2018-06-22T04:40:34.412Z,4868.00
2018-06-22T04:41:34.418Z,5504.00
2018-06-22T04:42:34.401Z,5320.00
2018-06-22T04:43:34.395Z,5456.00
2018-06-22T04:44:34.390Z,5636.00
2018-06-22T04:45:34.386Z,6020.00
2018-06-22T04:46:34.387Z,6576.00
2018-06-22T04:47:34.384Z,7264.00
2018-06-22T04:48:34.379Z,7460.00
2018-06-22T04:49:34.366Z,7488.00
2018-06-22T04:50:34.358Z,6948.00
2018-06-22T04:51:34.358Z,6644.00
2018-06-22T04:52:34.354Z,6396.00
2018-06-22T04:53:34.356Z,6088.00
2018-06-22T04:54:34.348Z,5808.00
2018-06-22T04:55:34.352Z,5640.00
2018-06-22T04:56:34.333Z,5708.00
2018-06-22T04:57:34.326Z,5804.00
2018-06-22T04:58:34.325Z,5804.00
2018-06-22T04:59:34.320Z,5656.00
2018-06-22T05:00:34.309Z,5660.00
2018-06-22T05:01:34.313Z,5928.00
2018-06-22T05:02:34.301Z,6488.00
2018-06-22T05:03:34.346Z,7056.00
2018-06-22T05:04:34.299Z,7432.00
2018-06-22T05:05:34.288Z,7608.00
2018-06-22T05:06:34.285Z,7924.00
2018-06-22T05:07:34.280Z,7888.00
2018-06-22T05:08:34.275Z,7652.00
2018-06-22T05:09:34.272Z,7860.00
2018-06-22T05:10:34.268Z,8164.00
2018-06-22T05:11:34.309Z,8424.00
2018-06-22T05:12:34.255Z,8580.00
2018-06-22T05:13:34.253Z,8652.00
2018-06-22T05:14:34.246Z,8696.00
2018-06-22T05:15:34.234Z,8924.00
2018-06-22T05:16:34.233Z,9760.00
2018-06-22T05:17:34.218Z,10884.00
2018-06-22T05:18:34.223Z,11184.00
2018-06-22T05:19:34.223Z,10968.00
2018-06-22T05:20:34.225Z,10752.00
2018-06-22T05:21:34.215Z,10204.00
2018-06-22T05:22:34.218Z,9664.00
2018-06-22T05:23:34.207Z,9528.00
2018-06-22T05:24:34.221Z,9696.00
2018-06-22T05:25:34.200Z,10140.00
2018-06-22T05:26:34.197Z,10592.00
2018-06-22T05:27:34.181Z,11232.00
2018-06-22T05:28:34.179Z,11716.00
2018-06-22T05:29:34.187Z,12164.00
2018-06-22T05:30:34.186Z,12500.00
2018-06-22T05:31:34.171Z,12808.00
2018-06-22T05:32:34.276Z,12768.00
2018-06-22T05:33:34.171Z,12760.00
2018-06-22T05:34:34.248Z,12692.00
2018-06-22T05:35:34.153Z,12780.00
2018-06-22T05:36:34.156Z,12940.00
2018-06-22T05:37:34.148Z,13496.00
2018-06-22T05:38:34.140Z,13572.00
2018-06-22T05:39:34.140Z,13736.00
2018-06-22T05:40:34.149Z,13876.00
2018-06-22T05:41:34.187Z,14172.00
2018-06-22T05:42:34.133Z,14216.00
2018-06-22T05:43:34.129Z,14152.00
2018-06-22T05:44:34.127Z,14092.00
2018-06-22T05:45:34.117Z,14364.00
2018-06-22T05:46:34.119Z,14492.00
2018-06-22T05:47:34.122Z,14356.00
2018-06-22T05:48:34.107Z,14384.00
2018-06-22T05:49:34.128Z,14604.00
2018-06-22T05:50:34.130Z,15268.00
2018-06-22T05:51:34.100Z,15540.00
2018-06-22T05:52:34.100Z,16896.00
2018-06-22T05:53:34.095Z,15944.00
2018-06-22T05:54:34.090Z,16068.00
2018-06-22T05:55:34.086Z,15732.00
2018-06-22T05:56:34.097Z,15368.00
2018-06-22T05:57:34.081Z,15160.00
2018-06-22T05:58:34.068Z,16768.00
2018-06-22T05:59:34.084Z,16384.00
2018-06-22T06:00:34.076Z,15484.00
2018-06-22T06:01:34.075Z,16512.00
2018-06-22T06:02:34.066Z,16032.00
2018-06-22T06:03:34.095Z,15132.00
2018-06-22T06:04:34.062Z,15804.00
2018-06-22T06:05:34.057Z,15708.00
2018-06-22T06:06:34.052Z,17632.00
2018-06-22T06:07:34.054Z,14484.00
2018-06-22T06:08:34.051Z,14500.00
2018-06-22T06:09:34.049Z,14076.00
2018-06-22T06:10:34.068Z,16480.00
2018-06-22T06:11:34.041Z,16928.00
2018-06-22T06:12:34.087Z,17184.00
2018-06-22T06:13:34.037Z,17792.00
2018-06-22T06:14:34.063Z,16220.00
2018-06-22T06:15:34.033Z,18752.00
2018-06-22T06:16:34.037Z,18144.00
2018-06-22T06:17:34.032Z,20416.00
2018-06-22T06:18:34.025Z,18208.00
2018-06-22T06:19:34.050Z,20736.00
2018-06-22T06:20:34.019Z,22016.00
2018-06-22T06:21:34.021Z,22560.00
2018-06-22T06:22:34.014Z,22880.00
2018-06-22T06:23:34.015Z,22048.00
2018-06-22T06:24:34.017Z,22336.00
2018-06-22T06:25:34.018Z,20384.00
2018-06-22T06:26:34.011Z,21248.00
2018-06-22T06:27:34.008Z,21920.00
2018-06-22T06:28:34.007Z,22496.00
2018-06-22T06:29:33.995Z,21056.00
2018-06-22T06:30:34.008Z,20608.00
2018-06-22T06:31:34.002Z,19136.00
2018-06-22T06:32:34.002Z,18208.00
2018-06-22T06:33:34.001Z,17504.00
2018-06-22T06:34:33.998Z,17248.00
2018-06-22T06:35:33.992Z,17152.00
2018-06-22T06:36:33.996Z,17152.00
2018-06-22T06:37:33.997Z,17408.00
2018-06-22T06:38:33.993Z,17632.00
2018-06-22T06:39:33.991Z,17728.00
2018-06-22T06:40:33.982Z,17920.00
2018-06-22T06:41:33.990Z,18592.00
2018-06-22T06:42:33.988Z,17696.00
2018-06-22T06:43:33.992Z,17536.00
2018-06-22T06:44:33.989Z,16612.00
2018-06-22T06:45:33.984Z,16452.00
2018-06-22T06:46:33.984Z,15728.00
2018-06-22T06:47:33.984Z,15496.00
2018-06-22T06:48:33.983Z,18176.00
2018-06-22T06:49:33.994Z,16832.00
2018-06-22T06:50:33.980Z,17792.00
2018-06-22T06:51:33.979Z,18368.00
2018-06-22T06:52:33.977Z,18176.00
2018-06-22T06:53:33.977Z,17504.00
2018-06-22T06:54:33.973Z,17184.00
2018-06-22T06:55:33.972Z,16480.00
2018-06-22T06:56:33.993Z,14076.00
2018-06-22T06:57:33.977Z,14172.00
2018-06-22T06:58:33.973Z,13824.00
2018-06-22T06:59:33.973Z,13592.00
2018-06-22T07:00:33.966Z,13828.00
2018-06-22T07:01:33.972Z,14652.00
2018-06-22T07:02:33.974Z,21152.00
2018-06-22T07:03:33.961Z,43456.00
2018-06-22T07:04:33.965Z,61088.00
2018-06-22T07:05:33.961Z,60000.00
2018-06-22T07:06:33.970Z,61024.00
2018-06-22T07:07:33.970Z,60928.00
2018-06-22T07:08:34.075Z,63520.00
2018-06-22T07:09:34.007Z,62240.00
2018-06-22T07:10:33.959Z,66368.00
2018-06-22T07:11:33.972Z,64320.00
2018-06-22T07:12:33.981Z,68576.00
2018-06-22T07:13:33.984Z,65664.00
2018-06-22T07:14:33.991Z,63040.00
2018-06-22T07:15:33.991Z,70208.00
2018-06-22T07:16:34.045Z,64608.00
2018-06-22T07:17:34.195Z,65536.00
2018-06-22T07:18:34.061Z,67136.00
2018-06-22T07:19:34.044Z,64384.00
2018-06-22T07:20:34.026Z,69888.00
2018-06-22T07:21:34.035Z,75744.00
2018-06-22T07:22:34.041Z,72768.00
2018-06-22T07:23:34.057Z,68512.00
2018-06-22T07:24:34.068Z,68480.00
2018-06-22T07:25:34.085Z,68416.00
2018-06-22T07:26:34.075Z,71104.00
2018-06-22T07:27:34.083Z,74400.00
2018-06-22T07:28:34.090Z,67936.00
2018-06-22T07:29:34.112Z,10136.00
2018-06-22T07:30:34.159Z,78560.00
2018-06-22T07:31:34.121Z,74368.00
2018-06-22T07:32:34.137Z,75072.00
2018-06-22T07:33:34.141Z,77120.00
2018-06-22T07:34:34.148Z,75936.00
2018-06-22T07:35:34.155Z,77376.00
2018-06-22T07:36:34.169Z,74528.00
2018-06-22T07:37:34.193Z,75456.00
2018-06-22T07:38:34.181Z,79232.00
2018-06-22T07:39:34.201Z,79904.00
2018-06-22T07:40:34.205Z,79648.00
2018-06-22T07:41:34.215Z,79520.00
2018-06-22T07:42:34.228Z,78528.00
2018-06-22T07:43:34.243Z,84224.00
2018-06-22T07:44:34.252Z,80384.00
2018-06-22T07:45:34.264Z,79840.00
2018-06-22T07:46:34.277Z,79488.00
2018-06-22T07:47:34.303Z,84128.00
2018-06-22T07:48:34.298Z,87168.00
2018-06-22T07:49:34.328Z,88448.00
2018-06-22T07:50:34.322Z,86272.00
2018-06-22T07:51:34.336Z,83936.00
2018-06-22T07:52:34.347Z,85696.00
2018-06-22T07:53:34.358Z,91616.00
2018-06-22T07:54:34.373Z,90720.00
2018-06-22T07:55:34.395Z,90272.00
2018-06-22T07:56:34.399Z,96512.00
2018-06-22T07:57:34.411Z,95936.00
2018-06-22T07:58:34.470Z,96352.00
2018-06-22T07:59:34.440Z,98080.00
2018-06-22T08:00:34.454Z,94080.00
2018-06-22T08:01:34.475Z,90176.00
2018-06-22T08:02:34.480Z,94976.00
2018-06-22T08:03:34.507Z,97504.00
2018-06-22T08:04:34.506Z,90656.00
2018-06-22T08:05:34.518Z,88896.00
2018-06-22T08:06:34.550Z,88064.00
2018-06-22T08:07:34.544Z,98304.00
2018-06-22T08:08:34.561Z,100608.00
2018-06-22T08:09:34.584Z,90784.00
2018-06-22T08:10:34.585Z,86720.00
2018-06-22T08:11:34.613Z,92416.00
2018-06-22T08:12:34.615Z,100256.00
2018-06-22T08:13:34.629Z,93888.00
2018-06-22T08:14:34.638Z,92960.00
2018-06-22T08:15:34.650Z,97600.00
2018-06-22T08:16:34.693Z,93600.00
2018-06-22T08:17:34.743Z,90400.00
2018-06-22T08:18:34.699Z,89984.00
2018-06-22T08:19:34.730Z,96640.00
2018-06-22T08:20:34.738Z,24288.00
2018-06-22T08:21:34.750Z,21152.00
2018-06-22T08:22:34.773Z,86656.00
2018-06-22T08:23:34.890Z,87904.00
2018-06-22T08:24:34.798Z,86624.00
2018-06-22T08:25:34.803Z,89472.00
2018-06-22T08:26:34.827Z,88736.00
2018-06-22T08:27:34.843Z,77632.00
2018-06-22T08:28:34.847Z,81120.00
2018-06-22T08:29:34.856Z,89344.00
2018-06-22T08:30:34.883Z,87232.00
2018-06-22T08:31:34.900Z,86336.00
2018-06-22T08:32:35.096Z,89728.00
2018-06-22T08:33:34.925Z,81728.00
2018-06-22T08:34:34.940Z,86368.00
2018-06-22T08:35:34.957Z,87648.00
2018-06-22T08:36:34.977Z,87136.00
2018-06-22T08:37:34.993Z,90080.00
2018-06-22T08:38:35.004Z,94656.00
2018-06-22T08:39:35.031Z,95488.00
2018-06-22T08:40:35.038Z,86400.00
2018-06-22T08:41:35.071Z,95040.00
2018-06-22T08:42:35.070Z,26112.00
2018-06-22T08:43:35.097Z,23584.00
2018-06-22T08:44:35.102Z,37440.00
2018-06-22T08:45:35.116Z,98240.00
2018-06-22T08:46:35.130Z,92672.00
2018-06-22T08:47:35.145Z,92064.00
2018-06-22T08:48:35.164Z,95424.00
2018-06-22T08:49:35.173Z,96064.00
2018-06-22T08:50:35.198Z,96224.00
2018-06-22T08:51:35.203Z,92352.00
2018-06-22T08:52:35.222Z,89216.00
2018-06-22T08:53:35.238Z,90560.00
2018-06-22T08:54:35.263Z,92608.00
2018-06-22T08:55:35.325Z,91936.00
2018-06-22T08:56:35.284Z,91488.00
2018-06-22T08:57:35.304Z,95136.00
2018-06-22T08:58:35.307Z,91040.00
2018-06-22T08:59:35.332Z,89696.00
2018-06-22T09:00:35.369Z,89152.00
2018-06-22T09:01:35.365Z,83360.00
2018-06-22T09:02:35.379Z,89728.00
2018-06-22T09:03:35.394Z,97760.00
2018-06-22T09:04:35.414Z,95840.00
2018-06-22T09:05:35.438Z,91712.00
2018-06-22T09:06:35.450Z,94368.00
2018-06-22T09:07:35.468Z,99840.00
2018-06-22T09:08:35.505Z,98144.00
2018-06-22T09:09:35.498Z,88480.00
2018-06-22T09:10:35.517Z,93280.00
2018-06-22T09:11:35.540Z,30848.00
2018-06-22T09:12:35.589Z,24096.00
2018-06-22T09:13:35.566Z,68512.00
2018-06-22T09:14:35.648Z,96096.00
2018-06-22T09:15:35.601Z,107520.00
2018-06-22T09:16:35.622Z,106752.00
2018-06-22T09:17:35.632Z,110528.00
2018-06-22T09:18:35.829Z,115968.00
2018-06-22T09:19:35.713Z,118592.00
2018-06-22T09:20:35.704Z,114464.00
2018-06-22T09:21:35.701Z,117088.00
2018-06-22T09:22:35.723Z,91968.00
2018-06-22T09:23:35.740Z,128416.00
2018-06-22T09:24:35.765Z,127808.00
2018-06-22T09:25:35.769Z,124320.00
2018-06-22T09:26:35.788Z,123520.00
2018-06-22T09:27:35.804Z,115232.00
2018-06-22T09:28:35.826Z,115808.00
2018-06-22T09:29:35.840Z,121024.00
2018-06-22T09:30:35.854Z,98816.00
2018-06-22T09:31:35.867Z,21792.00
2018-06-22T09:32:35.890Z,20096.00
2018-06-22T09:33:35.922Z,18208.00
2018-06-22T09:34:35.933Z,16000.00
2018-06-22T09:35:35.947Z,14956.00
2018-06-22T09:36:35.951Z,19136.00
2018-06-22T09:37:35.974Z,112608.00
2018-06-22T09:38:36.010Z,108512.00
2018-06-22T09:39:35.999Z,67488.00
2018-06-22T09:40:36.012Z,105760.00
2018-06-22T09:41:36.025Z,52704.00
2018-06-22T09:42:36.052Z,30496.00
2018-06-22T09:43:36.046Z,125952.00
2018-06-22T09:44:36.064Z,125440.00
2018-06-22T09:45:36.080Z,27712.00
2018-06-22T09:46:36.100Z,21952.00
2018-06-22T09:47:36.109Z,19232.00
2018-06-22T09:48:36.123Z,19232.00
2018-06-22T09:49:36.131Z,24000.00
2018-06-22T09:50:36.178Z,40256.00
2018-06-22T09:51:36.146Z,62400.00
2018-06-22T09:52:36.162Z,106976.00
2018-06-22T09:53:36.172Z,107328.00
2018-06-22T09:54:36.180Z,111904.00
2018-06-22T09:55:36.184Z,113504.00
2018-06-22T09:56:36.198Z,120512.00
2018-06-22T09:57:36.207Z,25312.00
2018-06-22T09:58:36.222Z,57344.00
2018-06-22T09:59:36.223Z,113792.00
2018-06-22T10:00:36.243Z,124416.00
2018-06-22T10:01:36.255Z,127008.00
2018-06-22T10:02:36.277Z,126624.00
2018-06-22T10:03:36.278Z,122656.00
2018-06-22T10:04:36.330Z,115872.00
2018-06-22T10:05:36.304Z,117280.00
2018-06-22T10:06:36.319Z,115296.00
2018-06-22T10:07:36.332Z,110464.00
2018-06-22T10:08:36.347Z,115040.00
2018-06-22T10:09:36.355Z,118656.00
2018-06-22T10:10:36.376Z,121216.00
2018-06-22T10:11:36.382Z,22208.00
2018-06-22T10:12:36.406Z,15316.00
2018-06-22T10:13:36.450Z,14004.00
2018-06-22T10:14:36.432Z,13324.00
2018-06-22T10:15:36.447Z,12740.00
2018-06-22T10:16:36.468Z,21888.00
2018-06-22T10:17:36.471Z,125600.00
2018-06-22T10:18:36.484Z,128000.00
2018-06-22T10:19:36.557Z,124896.00
2018-06-22T10:20:36.515Z,124736.00
2018-06-22T10:21:36.524Z,117728.00
2018-06-22T10:22:36.535Z,107232.00
2018-06-22T10:23:36.562Z,109920.00
2018-06-22T10:24:36.563Z,118848.00
2018-06-22T10:25:36.566Z,128288.00
2018-06-22T10:26:36.600Z,28416.00
2018-06-22T10:27:36.602Z,30016.00
2018-06-22T10:28:36.624Z,53728.00
2018-06-22T10:29:36.636Z,89952.00
2018-06-22T10:30:36.647Z,67040.00
2018-06-22T10:31:36.676Z,85536.00
2018-06-22T10:32:36.677Z,123328.00
2018-06-22T10:33:36.692Z,40640.00
2018-06-22T10:34:36.708Z,30944.00
2018-06-22T10:35:36.727Z,35584.00
2018-06-22T10:36:36.730Z,30656.00
2018-06-22T10:37:36.738Z,115072.00
2018-06-22T10:38:36.757Z,125472.00
2018-06-22T10:39:36.768Z,116128.00
2018-06-22T10:40:36.777Z,113440.00
2018-06-22T10:41:36.796Z,124352.00
2018-06-22T10:42:36.812Z,122048.00
2018-06-22T10:43:36.816Z,83584.00
2018-06-22T10:44:36.843Z,109536.00
2018-06-22T10:45:36.848Z,92480.00
2018-06-22T10:46:36.862Z,81952.00
2018-06-22T10:47:36.880Z,58784.00
2018-06-22T10:48:36.901Z,115584.00
2018-06-22T10:49:36.904Z,77408.00
2018-06-22T10:50:36.920Z,25856.00
2018-06-22T10:51:36.950Z,26240.00
2018-06-22T10:52:37.071Z,23488.00
2018-06-22T10:53:37.039Z,18688.00
2018-06-22T10:54:36.990Z,17568.00
2018-06-22T10:55:36.989Z,17600.00
2018-06-22T10:56:37.043Z,17952.00
2018-06-22T10:57:37.061Z,18624.00
2018-06-22T10:58:37.032Z,21600.00
2018-06-22T10:59:37.078Z,118112.00
2018-06-22T11:00:37.042Z,102496.00
2018-06-22T11:01:37.059Z,27328.00
2018-06-22T11:02:37.061Z,47456.00
2018-06-22T11:03:37.107Z,114304.00
2018-06-22T11:04:37.089Z,116512.00
2018-06-22T11:05:37.085Z,123136.00
2018-06-22T11:06:37.099Z,69056.00
2018-06-22T11:07:37.119Z,29024.00
2018-06-22T11:08:37.131Z,31552.00
2018-06-22T11:09:37.135Z,40544.00
2018-06-22T11:10:37.153Z,52672.00
2018-06-22T11:11:37.196Z,94272.00
2018-06-22T11:12:37.163Z,32896.00
2018-06-22T11:13:37.185Z,30112.00
2018-06-22T11:14:37.182Z,27776.00
2018-06-22T11:15:37.194Z,28224.00
2018-06-22T11:16:37.218Z,120352.00
2018-06-22T11:17:37.217Z,37248.00
2018-06-22T11:18:37.226Z,34080.00
2018-06-22T11:19:37.236Z,121376.00
2018-06-22T11:20:37.250Z,36096.00
2018-06-22T11:21:37.260Z,28608.00
2018-06-22T11:22:37.266Z,28032.00
2018-06-22T11:23:37.355Z,29024.00
2018-06-22T11:24:37.407Z,32512.00
2018-06-22T11:25:37.355Z,27488.00
2018-06-22T11:26:37.367Z,25440.00
2018-06-22T11:27:37.380Z,24832.00
2018-06-22T11:28:37.382Z,24512.00
2018-06-22T11:29:37.341Z,24352.00
2018-06-22T11:30:37.339Z,24192.00
2018-06-22T11:31:37.358Z,25152.00
2018-06-22T11:32:37.381Z,26624.00
2018-06-22T11:33:37.359Z,28832.00
2018-06-22T11:34:37.364Z,29728.00
2018-06-22T11:35:37.423Z,29184.00
2018-06-22T11:36:37.375Z,32416.00
2018-06-22T11:37:37.383Z,57504.00
2018-06-22T11:38:37.380Z,39776.00
2018-06-22T11:39:37.394Z,31392.00
2018-06-22T11:40:37.405Z,26912.00
2018-06-22T11:41:37.464Z,25088.00
2018-06-22T11:42:37.415Z,25280.00
2018-06-22T11:43:37.426Z,25120.00
2018-06-22T11:44:37.489Z,25152.00
2018-06-22T11:45:37.587Z,24608.00
2018-06-22T11:46:37.444Z,24576.00
2018-06-22T11:47:37.497Z,26656.00
2018-06-22T11:48:37.456Z,32288.00
2018-06-22T11:49:37.458Z,31424.00
2018-06-22T11:50:37.464Z,32288.00
2018-06-22T11:51:37.472Z,31488.00
2018-06-22T11:52:37.479Z,101536.00
2018-06-22T11:53:37.483Z,106080.00
2018-06-22T11:54:37.495Z,33536.00
2018-06-22T11:55:37.493Z,102016.00
2018-06-22T11:56:37.499Z,33376.00
2018-06-22T11:57:37.574Z,86560.00
2018-06-22T11:58:37.516Z,28512.00
2018-06-22T11:59:37.530Z,23936.00
2018-06-22T12:00:37.586Z,22496.00
2018-06-22T12:01:37.546Z,18944.00
2018-06-22T12:02:37.546Z,19072.00
2018-06-22T12:03:37.618Z,76288.00
2018-06-22T12:04:37.597Z,23296.00
2018-06-22T12:05:37.566Z,24448.00
2018-06-22T12:06:37.714Z,26016.00
2018-06-22T12:07:37.584Z,59136.00
2018-06-22T12:08:37.594Z,88000.00
2018-06-22T12:09:37.639Z,91104.00
2018-06-22T12:10:37.706Z,26496.00
2018-06-22T12:11:37.764Z,28128.00
2018-06-22T12:12:37.672Z,28000.00
2018-06-22T12:13:37.627Z,26176.00
2018-06-22T12:14:37.684Z,26848.00
2018-06-22T12:15:37.680Z,26688.00
2018-06-22T12:16:37.659Z,25152.00
2018-06-22T12:17:37.659Z,22880.00
2018-06-22T12:18:37.680Z,21376.00
2018-06-22T12:19:37.678Z,24416.00
2018-06-22T12:20:37.675Z,30816.00
2018-06-22T12:21:37.751Z,29152.00
2018-06-22T12:22:37.687Z,32032.00
2018-06-22T12:23:37.692Z,31392.00
2018-06-22T12:24:37.749Z,112320.00
2018-06-22T12:25:37.704Z,146624.00
2018-06-22T12:26:37.743Z,152000.00
2018-06-22T12:27:37.827Z,32128.00
2018-06-22T12:28:37.755Z,133984.00
2018-06-22T12:29:37.732Z,136704.00
2018-06-22T12:30:37.785Z,60704.00
2018-06-22T12:31:37.740Z,34880.00
2018-06-22T12:32:37.753Z,28800.00
2018-06-22T12:33:37.812Z,27584.00
2018-06-22T12:34:37.772Z,25504.00
2018-06-22T12:35:37.775Z,24672.00
2018-06-22T12:36:37.820Z,24128.00
2018-06-22T12:37:37.790Z,23648.00
2018-06-22T12:38:37.798Z,23232.00
2018-06-22T12:39:37.837Z,22976.00